Latest Weather Observations for Cressy

IDT60801

Issued at 9:31 pm EST Tuesday 4 August 2015 (issued every 30 minutes, with the page automatically refreshed every 10 minutes)

About weather observations | Map of weather stations | Latest weather observations for TAS | Other Formats
Station Details ID: 091306 Name: CRESSY RESEARCH STATION Lat: -41.73 Lon: 147.08 Height: 148.0 m
Data from the previous 72 hours. | See also: Recent months at Cressy
Date/Time
EST
Temp
°C
App
Temp
°C
Dew
Point
Rel
Hum
%
Delta-T
°C
Wind Press
QNH
hPa
Press
MSL
hPa
Rain
since 9 am
mm
Dir
 
Spd
km/h
Gust
km/h
Spd
kts
Gust
kts
04/09:30pm 6.9 0.0 4.6 85 1.0 NNW 30 43 16 23 - - 0.0
04/09:00pm 7.1 0.2 4.8 85 1.0 NNW 30 39 16 21 - - 0.0
04/08:30pm 7.5 0.0 4.6 82 1.3 NNW 33 43 18 23 - - 0.0
04/08:02pm 7.5 -0.4 4.3 80 1.4 NNW 35 56 19 30 - - 0.0
04/08:00pm 7.4 -0.5 4.4 81 1.3 NNW 35 46 19 25 - - 0.0
04/07:30pm 7.6 -0.6 4.6 81 1.3 NNW 37 50 20 27 - - 0.0
04/07:00pm 7.6 -1.1 4.2 79 1.5 NNW 39 48 21 26 - - 0.0
04/06:30pm 7.6 -1.1 4.0 78 1.6 NNW 39 52 21 28 - - 0.0
04/06:05pm 7.8 -1.7 4.0 77 1.7 NNW 43 61 23 33 - - 0.0
04/06:00pm 7.6 -1.8 4.2 79 1.5 NNW 43 57 23 31 - - 0.0
04/05:30pm 7.8 -1.3 4.2 78 1.6 NNW 41 50 22 27 - - 0.0
04/05:17pm 7.9 -0.7 4.7 80 1.4 NNW 39 57 21 31 - - 0.0
04/05:00pm 7.7 -0.6 4.1 78 1.6 NNW 37 50 20 27 - - 0.0
04/04:30pm 7.9 -0.7 4.7 80 1.4 NNW 39 48 21 26 - - 0.0
04/04:16pm 8.4 0.1 4.4 76 1.8 NW 37 56 20 30 - - 0.0
04/04:00pm 8.4 0.2 4.6 77 1.7 NNW 37 46 20 25 - - 0.0
04/03:30pm 8.7 0.5 4.7 76 1.8 NNW 37 48 20 26 - - 0.0
04/03:00pm 9.1 1.7 5.1 76 1.8 NNW 33 50 18 27 - - 0.0
04/02:30pm 8.2 1.1 5.3 82 1.3 NNW 32 41 17 22 - - 0.0
04/02:00pm 8.4 -0.4 3.8 73 2.0 NNW 39 48 21 26 - - 0.0
04/01:30pm 8.8 -1.1 3.0 67 2.5 NNW 44 57 24 31 - - 0.0
04/01:00pm 9.3 0.4 3.1 65 2.7 NNW 39 54 21 29 - - 0.0
04/12:30pm 8.8 0.3 3.0 67 2.5 NNW 37 46 20 25 - - 0.0
04/12:00pm 8.5 1.8 3.8 72 2.1 NNW 28 35 15 19 - - 0.0
04/11:30am 7.1 0.3 3.2 76 1.7 NNW 28 33 15 18 - - 0.0
04/11:00am 5.6 -1.3 2.3 79 1.4 NNW 28 35 15 19 - - 0.0
04/10:30am 5.1 -1.9 1.9 80 1.3 NNW 28 33 15 18 - - 0.0
04/10:00am 4.5 -1.4 1.7 82 1.1 NNW 22 28 12 15 - - 0.0
04/09:30am 3.0 -2.7 0.6 84 0.9 NNW 20 26 11 14 - - 0.0
04/09:00am 3.1 -2.7 0.0 80 1.2 N 20 30 11 16 - - 0.4
04/08:30am 2.8 -3.8 -0.3 80 1.2 NNW 24 32 13 17 - - 0.4
04/08:00am 2.3 -4.7 -0.8 80 1.1 NNW 26 32 14 17 - - 0.4
04/07:30am 2.0 -4.3 -1.2 79 1.1 N 22 32 12 17 - - 0.4
04/07:00am 1.6 -4.8 -1.5 80 1.1 NNW 22 30 12 16 - - 0.4
04/06:30am 1.5 -5.6 -1.4 81 1.0 NNW 26 32 14 17 - - 0.4
04/06:00am -0.2 -3.6 -1.9 88 0.6 SE 6 7 3 4 - - 0.4
04/05:30am -0.5 -4.5 -2.4 87 0.6 SW 9 13 5 7 - - 0.4
04/05:00am 0.3 -5.2 -1.9 85 0.8 N 17 24 9 13 - - 0.4
04/04:30am 0.8 -5.2 -1.8 83 1.0 N 20 28 11 15 - - 0.4
04/04:00am 0.9 -5.5 -1.8 82 1.0 NNW 22 28 12 15 - - 0.4
04/03:30am 0.4 -4.3 -2.0 84 0.9 NNW 13 22 7 12 - - 0.4
04/03:00am 0.0 -3.4 -2.4 84 0.8 NNE 6 9 3 5 - - 0.4
04/02:30am -0.6 -3.3 -2.5 87 0.6 WSW 2 11 1 6 - - 0.4
04/02:00am -1.2 -4.9 -3.2 86 0.6 N 7 11 4 6 - - 0.4
04/01:30am -1.6 -5.4 -3.5 87 0.6 N 7 13 4 7 - - 0.4
04/01:00am -2.1 -4.6 -4.1 86 0.5 CALM 0 0 0 0 - - 0.4
04/12:30am -1.2 -4.4 -3.5 84 0.7 WNW 4 7 2 4 - - 0.4
04/12:00am 0.0 -3.2 -3.4 78 1.1 WNW 4 9 2 5 - - 0.4
 
Date/Time
EST
Temp
°C
App
Temp
°C
Dew
Point
Rel
Hum
%
Delta-T
°C
Wind Press
QNH
hPa
Press
MSL
hPa
Rain
since 9 am
mm
Dir
 
Spd
km/h
Gust
km/h
Spd
kts
Gust
kts
03/11:30pm -0.1 -3.7 -3.8 76 1.2 NE 6 11 3 6 - - 0.4
03/11:00pm 1.2 -3.7 -3.5 71 1.6 N 13 17 7 9 - - 0.4
03/10:30pm 1.6 -3.7 -3.3 70 1.8 NNE 15 20 8 11 - - 0.4
03/10:00pm 2.4 -3.2 -3.3 66 1.9 NNW 17 22 9 12 - - 0.4
03/09:30pm 4.2 -1.1 -3.3 58 2.6 WNW 15 22 8 12 - - 0.4
03/09:00pm 4.6 -1.0 -2.9 58 2.7 W 17 24 9 13 - - 0.4
03/08:30pm 3.0 -0.7 -2.9 65 2.0 NNW 7 13 4 7 - - 0.4
03/08:00pm 4.6 0.5 -2.7 59 2.6 NNE 9 13 5 7 - - 0.4
03/07:30pm 5.3 0.4 -3.0 55 3.0 SW 13 19 7 10 - - 0.4
03/07:00pm 5.1 -1.0 -2.7 57 2.8 W 20 30 11 16 - - 0.4
03/06:30pm 4.8 0.7 -3.2 56 2.8 NNW 9 17 5 9 - - 0.4
03/06:00pm 5.6 -1.0 -3.5 52 3.2 SSW 22 35 12 19 - - 0.4
03/05:30pm 5.6 -0.5 -3.7 51 3.3 SSW 19 28 10 15 - - 0.4
03/05:00pm 6.1 -0.1 -3.5 50 3.4 SW 20 39 11 21 - - 0.4
03/04:30pm 6.5 -1.4 -4.3 46 3.8 SW 28 56 15 30 - - 0.4
03/04:00pm 6.5 -2.2 -3.2 50 3.5 SW 33 52 18 28 - - 0.4
03/03:47pm 6.7 -1.4 -3.2 49 3.6 SW 30 52 16 28 - - 0.4
03/03:30pm 6.2 -1.3 -1.4 58 2.9 WSW 28 41 15 22 - - 0.4
03/03:10pm 6.4 -1.9 -2.0 55 3.1 WSW 32 50 17 27 - - 0.4
03/03:00pm 7.2 -0.3 -1.7 53 3.4 SW 28 41 15 22 - - 0.4
03/02:30pm 7.2 -1.2 -2.2 51 3.5 WSW 32 57 17 31 - - 0.4
03/02:18pm 7.0 -0.6 -2.2 52 3.4 WSW 28 50 15 27 - - 0.4
03/02:00pm 6.8 -0.3 -1.1 57 3.0 WSW 26 39 14 21 - - 0.4
03/01:30pm 4.8 -1.4 2.2 83 1.1 NNW 24 32 13 17 - - 0.4
03/01:00pm 4.8 -3.2 0.4 73 1.7 WSW 32 44 17 24 - - 0.4
03/12:48pm 5.1 -3.0 -0.1 69 2.0 WNW 32 65 17 35 - - 0.4
03/12:30pm 4.5 -3.3 2.0 84 1.0 NNW 32 43 17 23 - - 0.4
03/12:00pm 3.5 -2.4 1.4 86 0.8 NW 22 30 12 16 - - 0.4
03/11:30am 4.2 -2.5 -1.2 68 2.0 WNW 24 41 13 22 - - 0.2
03/11:00am 4.1 -2.4 0.3 76 1.5 WNW 24 32 13 17 - - 0.2
03/10:30am 4.4 -0.9 1.6 82 1.1 NW 19 26 10 14 - - 0.2
03/10:00am 3.2 -2.3 0.9 85 0.9 N 19 26 10 14 - - 0.2
03/09:30am 1.4 -3.1 -0.1 90 0.6 W 13 19 7 10 - - 0.2
03/09:10am 2.2 -4.5 -1.2 78 1.2 W 24 48 13 26 - - 0.0
03/09:09am 2.2 -4.2 -1.6 76 1.4 W 22 48 12 26 - - 0.0
03/09:00am 2.4 -3.4 0.1 85 0.9 NNW 20 28 11 15 - - 3.8
03/08:30am 1.1 -6.0 -1.0 86 0.7 WNW 26 32 14 17 - - 3.8
03/08:00am 1.5 -5.6 -1.6 80 1.1 WNW 26 37 14 20 - - 3.8
03/07:30am 0.4 -5.4 -1.7 86 0.8 NNW 19 26 10 14 - - 3.8
03/07:00am 0.7 -4.8 -2.0 82 1.0 W 17 20 9 11 - - 3.8
03/06:30am 0.6 -4.8 -1.0 89 0.6 NNW 17 22 9 12 - - 3.8
03/06:00am 0.9 -3.0 -1.2 86 0.7 SE 9 15 5 8 - - 3.8
03/05:30am 1.0 -4.7 -0.5 90 0.5 NNW 19 24 10 13 - - 3.8
03/05:00am 1.3 -5.3 -0.5 88 0.7 NNW 24 35 13 19 - - 3.8
03/04:30am 0.9 -4.3 0.0 94 0.3 NNW 17 24 9 13 - - 3.8
03/04:00am 1.3 -4.4 0.3 93 0.4 NW 20 26 11 14 - - 3.8
03/03:30am 2.3 -4.9 0.4 87 0.7 NW 28 39 15 21 - - 3.6
03/03:00am 1.9 -4.3 -0.2 86 0.8 NNW 22 28 12 15 - - 3.6
03/02:30am 2.4 -4.9 0.3 86 0.8 NNW 28 41 15 22 - - 3.6
03/02:00am 2.1 -4.3 0.8 91 0.5 NNW 24 37 13 20 - - 3.6
03/01:30am 2.1 -3.5 1.1 93 0.4 NNW 20 26 11 14 - - 3.6
03/01:00am 2.9 -3.4 1.6 91 0.5 NW 24 35 13 19 - - 3.4
03/12:30am 3.0 -5.0 1.7 91 0.5 NW 33 43 18 23 - - 3.2
03/12:00am 2.3 -4.8 1.1 92 0.5 NNW 28 35 15 19 - - 3.2
 
Date/Time
EST
Temp
°C
App
Temp
°C
Dew
Point
Rel
Hum
%
Delta-T
°C
Wind Press
QNH
hPa
Press
MSL
hPa
Rain
since 9 am
mm
Dir
 
Spd
km/h
Gust
km/h
Spd
kts
Gust
kts
02/11:30pm 2.3 -5.6 1.1 92 0.5 NNW 32 39 17 21 - - 3.2
02/11:00pm 3.1 -2.4 1.6 90 0.6 NW 20 33 11 18 - - 3.0
02/10:30pm 4.0 -3.2 1.0 81 1.2 NW 28 46 15 25 - - 2.0
02/10:00pm 3.7 -5.5 1.4 85 0.9 NNW 39 50 21 27 - - 2.0
02/09:30pm 3.8 -6.1 1.4 84 0.9 NNW 43 59 23 32 - - 2.0
02/09:11pm 3.8 -5.8 1.2 83 1.0 NNW 41 59 22 32 - - 2.0
02/09:00pm 3.6 -5.6 1.0 83 1.0 NNW 39 46 21 25 - - 2.0
02/08:30pm 3.5 -3.3 0.9 83 1.0 NNW 26 35 14 19 - - 2.0
02/08:00pm 3.8 -3.3 1.2 83 1.0 NNW 28 39 15 21 - - 2.0
02/07:30pm 3.8 -3.4 0.7 80 1.2 NW 28 41 15 22 - - 2.0
02/07:00pm 4.3 -1.4 0.6 77 1.4 NW 20 30 11 16 - - 2.0
02/06:30pm 4.4 -2.6 -0.2 72 1.7 NW 26 37 14 20 - - 2.0
02/06:00pm 4.2 -1.5 -0.6 71 1.8 NW 19 22 10 12 - - 2.0
02/05:30pm 4.4 -1.4 -1.6 65 2.2 NNW 19 26 10 14 - - 2.0
02/05:00pm 6.3 -1.4 -2.6 53 3.2 NW 28 39 15 21 - - 2.0
02/04:30pm 7.1 -0.1 -1.8 53 3.3 WNW 26 39 14 21 - - 2.0
02/04:00pm 8.6 1.8 -1.5 49 3.9 W 24 35 13 19 - - 2.0
02/03:30pm 9.3 3.5 0.2 53 3.7 WNW 20 26 11 14 - - 2.0
02/03:00pm 8.8 2.3 0.0 54 3.5 WSW 24 35 13 19 - - 2.0
02/02:50pm 8.6 1.1 1.1 59 3.1 WSW 30 48 16 26 - - 2.0
02/02:30pm 8.7 3.2 2.1 63 2.8 WSW 20 32 11 17 - - 2.0
02/02:11pm 7.3 0.6 3.9 79 1.5 WNW 28 43 15 23 - - 2.0
02/02:00pm 7.3 -1.3 4.6 83 1.2 NW 39 52 21 28 - - 2.0
02/01:35pm 7.4 -2.0 5.5 88 0.9 NW 44 63 24 34 - - 1.6
02/01:30pm 7.6 -2.9 5.6 87 0.9 NW 50 61 27 33 - - 1.2
02/01:00pm 8.1 -2.3 5.9 86 1.0 NNW 50 69 27 37 - - 0.4
02/12:30pm 9.3 -1.1 6.0 80 1.5 NNW 50 72 27 39 - - 0.2
02/12:08pm 8.0 -1.1 6.0 87 0.9 NNW 43 65 23 35 - - 0.2
02/12:00pm 9.0 0.6 5.4 78 1.6 NNW 39 54 21 29 - - 0.0
02/11:53am 9.4 0.1 5.2 75 1.9 NNW 43 61 23 33 - - 0.0
02/11:30am 9.7 -0.5 5.1 73 2.1 NNW 48 63 26 34 - - 0.0
02/11:00am 9.4 -0.3 5.6 77 1.7 NNW 46 61 25 33 - - 0.0
02/10:36am 8.7 -1.2 4.9 77 1.7 NNW 46 67 25 36 - - 0.0
02/10:30am 8.5 -1.4 4.7 77 1.7 NNW 46 59 25 32 - - 0.0
02/10:02am 8.2 -1.4 4.2 76 1.8 NNW 44 63 24 34 - - 0.0
02/10:00am 8.3 -1.1 4.5 77 1.7 NNW 43 56 23 30 - - 0.0
02/09:30am 7.8 -1.2 4.4 79 1.5 NNW 41 52 22 28 - - 0.0
02/09:00am 7.1 -1.2 4.1 81 1.3 NNW 37 48 20 26 - - 0.0
02/08:30am 6.3 -1.2 3.5 82 1.2 NNW 32 43 17 23 - - 0.0
02/08:00am 5.8 -1.0 3.3 84 1.1 N 28 39 15 21 - - 0.0
02/07:30am 5.4 -2.2 2.9 84 1.0 NNW 32 39 17 21 - - 0.0
02/07:00am 5.3 -0.8 3.0 85 1.0 NNW 24 33 13 18 - - 0.0
02/06:30am 5.4 -1.0 3.1 85 1.0 NNW 26 39 14 21 - - 0.0
02/06:00am 4.4 -1.0 2.4 87 0.8 NNW 20 26 11 14 - - 0.0
02/05:30am 4.4 -1.0 2.4 87 0.8 NNW 20 30 11 16 - - 0.0
02/05:00am 4.5 -1.7 2.2 85 0.9 NNW 24 32 13 17 - - 0.0
02/04:30am 4.5 -1.3 2.2 85 0.9 NNW 22 28 12 15 - - 0.0
02/04:00am 4.6 -1.6 2.1 84 1.0 N 24 30 13 16 - - 0.0
02/03:30am 4.6 -1.3 1.8 82 1.1 N 22 30 12 16 - - 0.0
02/03:00am 4.5 -2.2 1.5 81 1.2 N 26 35 14 19 - - 0.0
02/02:30am 4.5 -1.8 1.5 81 1.2 N 24 35 13 19 - - 0.0
02/02:00am 4.4 -3.1 1.4 81 1.2 N 30 41 16 22 - - 0.0
02/01:30am 4.6 -3.2 1.6 81 1.2 N 32 39 17 21 - - 0.0
02/01:00am 4.3 -2.4 1.3 81 1.2 N 26 37 14 20 - - 0.0
02/12:30am 4.5 -1.8 1.4 80 1.2 N 24 35 13 19 - - 0.0
02/12:00am 4.4 -1.9 1.4 81 1.2 N 24 32 13 17 - - 0.0
 
Date/Time
EST
Temp
°C
App
Temp
°C
Dew
Point
Rel
Hum
%
Delta-T
°C
Wind Press
QNH
hPa
Press
MSL
hPa
Rain
since 9 am
mm
Dir
 
Spd
km/h
Gust
km/h
Spd
kts
Gust
kts
01/11:30pm 4.3 -2.0 1.5 82 1.1 N 24 30 13 16 - - 0.0
01/11:00pm 4.4 -3.1 1.4 81 1.2 NNW 30 35 16 19 - - 0.0
01/10:30pm 4.2 -1.3 1.6 83 1.0 NNW 20 26 11 14 - - 0.0
01/10:00pm 4.0 -1.6 1.4 83 1.0 NNW 20 26 11 14 - - 0.0

Other Formats:

Comma delimited format used in spreadsheet applications
http://www.bom.gov.au/fwo/IDT60801/IDT60801.95969.axf

JavaScript Object Notation format (JSON) in row-major order
http://www.bom.gov.au/fwo/IDT60801/IDT60801.95969.json